Time;durP1;ratioP1;P1;durP2;ratioP2;P2;SDS_P1;SDS_P2;PMS_P1;PMS_P2;Temp;Humidity;BMP_temperature;BMP_pressure;BME280_temperature;BME280_humidity;BME280_pressure;Samples;Min_cycle;Max_cycle;Signal;HPM_P1;HPM_P2
2021/08/11 00:00:55;;;;;;;4.75;1.35;;;14.00;93.50;;;16.30;83.43;101799.84;4394264;39;96840;-74
2021/08/11 00:03:58;;;;;;;1.17;0.63;;;14.00;93.50;;;16.28;84.00;101809.41;4394070;39;96562;-74
2021/08/11 00:07:06;;;;;;;0.80;0.75;;;13.90;93.50;;;16.19;83.74;101812.06;4393682;39;96624;-74
2021/08/11 00:10:12;;;;;;;0.32;0.32;;;13.90;93.50;;;16.20;83.56;101804.72;4384352;39;99332;-74
2021/08/11 00:13:16;;;;;;;2.17;0.65;;;13.90;93.60;;;16.18;83.38;101812.38;4393439;39;97280;-74
2021/08/11 00:16:19;;;;;;;0.50;0.50;;;13.90;93.60;;;16.14;83.78;101801.38;4393055;39;98083;-74
2021/08/11 00:19:23;;;;;;;;;;;13.90;93.60;;;16.12;83.65;101805.50;4395227;39;97513;-74
2021/08/11 00:22:29;;;;;;;0.05;0.05;;;13.80;93.60;;;16.20;83.89;101804.72;4394866;39;97481;-74
2021/08/11 00:25:33;;;;;;;0.38;0.32;;;13.80;93.60;;;16.11;84.42;101807.44;4390347;39;97272;-74
2021/08/11 00:28:37;;;;;;;;;;;13.80;93.60;;;16.06;83.81;101807.56;4394119;39;98334;-74
2021/08/11 00:31:40;;;;;;;0.97;0.50;;;13.80;93.60;;;16.16;83.56;101801.88;4392960;39;97461;-74
2021/08/11 00:34:45;;;;;;;1.85;0.77;;;13.80;93.60;;;16.16;83.44;101798.34;4395271;39;97519;-74
2021/08/11 00:37:51;;;;;;;0.98;0.82;;;13.70;93.60;;;16.11;83.46;101801.22;4384162;39;97808;-74
2021/08/11 00:40:57;;;;;;;0.47;0.47;;;13.70;93.60;;;16.12;83.26;101803.63;4392139;39;96660;-74
2021/08/11 00:44:01;;;;;;;2.08;1.45;;;13.70;93.60;;;16.10;83.08;101799.63;4392926;39;98595;-74
2021/08/11 00:47:07;;;;;;;3.22;0.75;;;13.70;93.60;;;16.08;82.75;101804.53;4386031;39;98866;-74
2021/08/11 00:50:14;;;;;;;0.10;0.10;;;13.60;93.60;;;16.03;83.27;101793.88;4390206;39;96767;-74
2021/08/11 00:53:27;;;;;;;0.55;0.55;;;13.60;93.60;;;15.99;82.69;101804.50;4393007;39;96777;-74
2021/08/11 00:56:34;;;;;;;0.30;0.30;;;13.60;93.60;;;15.99;83.31;101809.13;4394973;39;97957;-74
2021/08/11 00:59:39;;;;;;;0.25;0.25;;;13.60;93.60;;;15.80;83.50;101801.25;4384801;39;98002;-74
2021/08/11 01:02:48;;;;;;;0.20;0.20;;;13.50;93.60;;;15.76;83.99;101808.38;4390231;39;97274;-74
2021/08/11 01:06:04;;;;;;;1.25;0.65;;;13.50;93.60;;;15.73;84.06;101802.78;4393098;39;96702;-74
2021/08/11 01:09:15;;;;;;;1.73;0.57;;;13.50;93.60;;;15.69;84.45;101805.28;4392993;39;98504;-74
2021/08/11 01:12:27;;;;;;;0.50;0.40;;;13.40;93.60;;;15.81;83.71;101807.44;4375914;39;97823;-74
2021/08/11 01:15:38;;;;;;;1.83;1.60;;;13.40;93.60;;;15.79;83.30;101809.66;4402799;39;97503;-74
2021/08/11 01:18:43;;;;;;;0.85;0.85;;;13.40;93.60;;;15.77;83.47;101812.66;4385931;39;96649;-74
2021/08/11 01:21:56;;;;;;;0.38;0.28;;;13.40;93.90;;;15.74;83.31;101807.84;4392222;39;97654;-74
2021/08/11 01:25:14;;;;;;;0.57;0.33;;;13.30;93.70;;;15.73;82.96;101808.19;4392916;39;97521;-74
2021/08/11 01:28:52;;;;;;;0.95;0.95;;;13.30;93.70;;;15.71;83.44;101813.88;4383591;39;97812;-74
2021/08/11 01:32:11;;;;;;;0.20;0.20;;;13.30;93.70;;;15.70;82.69;101811.50;4391886;39;97608;-74
2021/08/11 01:35:20;;;;;;;0.28;0.28;;;13.30;93.70;;;15.68;82.55;101807.50;4385060;39;97875;-74
2021/08/11 01:38:31;;;;;;;0.50;0.50;;;13.20;93.60;;;15.64;83.58;101812.75;4394749;39;97463;-74
2021/08/11 01:41:51;;;;;;;0.82;0.50;;;13.20;93.60;;;15.59;83.73;101804.75;4384201;39;96797;-74
2021/08/11 01:45:09;;;;;;;1.38;0.93;;;13.20;93.70;;;15.56;83.72;101808.06;4393269;39;97560;-74
2021/08/11 01:48:17;;;;;;;0.10;0.10;;;13.20;93.70;;;15.56;83.73;101808.06;4372639;39;97766;-74
2021/08/11 01:51:24;;;;;;;0.47;0.47;;;13.20;93.70;;;15.51;82.96;101802.81;4392100;39;97283;-74
2021/08/11 01:54:29;;;;;;;0.20;0.20;;;13.10;93.60;;;15.48;82.84;101802.63;4393553;39;99780;-74
2021/08/11 01:57:33;;;;;;;0.75;0.50;;;13.10;93.70;;;15.45;83.12;101804.03;4392360;39;97566;-74
2021/08/11 02:00:37;;;;;;;0.85;0.85;;;13.10;93.70;;;15.42;83.63;101817.34;4394041;39;97448;-74
2021/08/11 02:03:45;;;;;;;0.47;0.47;;;13.10;93.70;;;15.42;82.94;101818.16;4391565;39;97604;-74
2021/08/11 02:06:53;;;;;;;0.90;0.85;;;13.00;93.70;;;15.39;83.46;101812.56;4394597;39;97510;-74
2021/08/11 02:09:58;;;;;;;0.43;0.43;;;13.00;93.70;;;15.37;83.18;101812.06;4385407;39;96780;-74
2021/08/11 02:13:03;;;;;;;0.55;0.55;;;13.00;93.70;;;15.39;83.19;101809.88;4384957;39;97221;-74
2021/08/11 02:16:08;;;;;;;0.32;0.32;;;12.90;93.70;;;15.43;82.89;101803.56;4391784;39;97560;-74
2021/08/11 02:19:13;;;;;;;0.47;0.47;;;12.90;93.80;;;15.40;83.21;101812.28;4389855;39;99368;-74
2021/08/11 02:22:19;;;;;;;0.55;0.55;;;12.90;93.70;;;15.38;83.50;101811.78;4391390;39;98706;-74
2021/08/11 02:25:24;;;;;;;1.42;0.82;;;12.90;93.70;;;15.36;83.40;101811.28;4391537;39;97930;-74
2021/08/11 02:28:52;;;;;;;0.43;0.43;;;12.90;93.70;;;15.35;82.88;101806.19;4394754;39;97538;-74
2021/08/11 02:32:11;;;;;;;0.08;0.08;;;12.90;93.70;;;15.32;83.43;101810.31;4400027;39;97773;-74
2021/08/11 02:35:22;;;;;;;0.30;0.30;;;12.80;93.70;;;15.31;82.91;101807.91;4399429;39;97206;-74
2021/08/11 02:38:35;;;;;;;4.88;1.15;;;12.80;93.70;;;15.28;83.27;101803.09;4369566;39;96857;-74
2021/08/11 02:41:52;;;;;;;3.20;0.35;;;12.80;93.70;;;15.25;83.35;101804.50;4396934;39;96964;-74
2021/08/11 02:45:03;;;;;;;4.13;1.10;;;12.80;93.70;;;15.25;82.95;101809.88;4382470;39;98178;-74
2021/08/11 02:48:12;;;;;;;0.22;0.22;;;12.80;93.80;;;15.22;83.38;101805.09;4392298;39;98558;-74
2021/08/11 02:51:17;;;;;;;0.00;0.00;;;12.80;93.70;;;15.19;83.48;101803.03;4390484;39;97411;-74
2021/08/11 02:54:25;;;;;;;0.28;0.28;;;12.80;93.70;;;15.17;83.27;101809.84;4380634;39;97533;-74
2021/08/11 02:57:32;;;;;;;1.23;0.75;;;12.70;93.70;;;15.13;83.02;101812.34;4391513;39;98204;-73
2021/08/11 03:00:39;;;;;;;0.00;0.00;;;12.70;93.70;;;15.13;82.97;101811.53;4388543;39;97716;-73
2021/08/11 03:03:44;;;;;;;0.50;0.50;;;12.70;93.70;;;15.07;83.47;101808.19;4390738;39;99508;-73
2021/08/11 03:06:49;;;;;;;0.40;0.40;;;12.70;93.70;;;15.08;83.45;101804.38;4388561;39;98546;-74
2021/08/11 03:09:54;;;;;;;0.63;0.63;;;12.60;93.70;;;15.09;83.50;101813.25;4392258;39;97665;-74
2021/08/11 03:12:58;;;;;;;1.35;1.25;;;12.70;93.80;;;15.04;82.96;101808.78;4400803;39;97649;-74
2021/08/11 03:16:06;;;;;;;0.55;0.30;;;12.60;93.70;;;14.98;83.10;101806.50;4374683;39;97563;-73
2021/08/11 03:19:11;;;;;;;0.15;0.15;;;12.60;93.70;;;14.98;83.58;101814.59;4370041;39;97795;-73
2021/08/11 03:22:15;;;;;;;2.88;0.17;;;12.60;93.70;;;14.93;83.67;101812.78;4383459;39;97476;-74
2021/08/11 03:25:22;;;;;;;0.50;0.50;;;12.50;93.70;;;14.91;83.53;101817.69;4384708;39;98119;-74
2021/08/11 03:28:27;;;;;;;0.20;0.20;;;12.50;93.70;;;14.88;83.59;101814.84;4384132;39;96686;-74
2021/08/11 03:31:32;;;;;;;0.40;0.40;;;12.50;93.70;;;14.85;83.11;101813.53;4373600;39;97602;-74
2021/08/11 03:34:36;;;;;;;0.82;0.82;;;12.40;93.70;;;14.82;83.71;101811.44;4394826;39;97698;-73
2021/08/11 03:37:41;;;;;;;1.52;1.15;;;12.50;93.80;;;14.82;83.92;101808.75;4385905;39;96753;-74
2021/08/11 03:40:47;;;;;;;1.55;1.23;;;12.40;93.80;;;14.84;83.63;101811.94;4386767;39;97551;-74
2021/08/11 03:43:51;;;;;;;0.05;0.03;;;12.40;93.80;;;14.84;83.92;101809.22;4384648;39;97089;-74
2021/08/11 03:47:03;;;;;;;0.00;0.00;;;12.40;93.90;;;14.85;84.18;101805.44;4391790;39;96979;-74
2021/08/11 03:50:11;;;;;;;2.63;1.30;;;12.50;93.90;;;14.86;83.46;101817.81;4393534;39;97535;-74
2021/08/11 03:53:18;;;;;;;0.22;0.22;;;12.40;93.90;;;14.87;84.06;101816.72;4401968;39;97041;-74
2021/08/11 03:56:24;;;;;;;0.70;0.70;;;12.50;93.90;;;14.90;83.99;101820.72;4394221;39;97724;-73
2021/08/11 03:59:28;;;;;;;0.98;0.80;;;12.40;93.90;;;14.94;83.71;101819.78;4394596;39;97725;-74
2021/08/11 04:02:32;;;;;;;0.30;0.30;;;12.50;94.00;;;14.99;84.35;101821.59;4393170;39;97832;-73
2021/08/11 04:05:36;;;;;;;1.77;1.20;;;12.50;94.00;;;15.03;84.10;101825.28;4382426;39;96802;-74
2021/08/11 04:08:40;;;;;;;1.48;0.82;;;12.50;94.00;;;15.08;84.16;101828.66;4393500;39;97065;-73
2021/08/11 04:11:46;;;;;;;0.70;0.70;;;12.60;94.10;;;15.14;83.83;101827.44;4391941;39;98809;-74
2021/08/11 04:14:50;;;;;;;0.80;0.80;;;12.60;94.10;;;15.18;84.01;101822.25;4399467;39;97757;-74
2021/08/11 04:17:53;;;;;;;1.63;1.52;;;12.60;94.10;;;15.20;84.07;101818.13;4394586;39;97619;-74
2021/08/11 04:20:57;;;;;;;13.05;0.50;;;12.70;94.10;;;15.27;83.63;101829.28;4395417;39;97696;-74
2021/08/11 04:24:01;;;;;;;0.93;0.65;;;12.70;94.00;;;15.33;83.05;101827.31;4393980;39;97055;-74
2021/08/11 04:27:08;;;;;;;4.57;0.75;;;12.80;94.00;;;15.39;83.73;101824.19;4385814;39;99764;-74
2021/08/11 04:30:12;;;;;;;0.90;0.70;;;12.80;94.00;;;15.44;83.05;101813.25;4392921;39;97606;-74
2021/08/11 04:33:18;;;;;;;1.33;0.75;;;12.80;94.00;;;15.44;83.42;101820.53;4394848;39;97700;-74
2021/08/11 04:36:22;;;;;;;1.55;0.70;;;12.90;93.90;;;15.51;83.04;101829.03;4379925;39;97894;-74
2021/08/11 04:39:26;;;;;;;;;;;12.90;93.90;;;15.58;83.15;101822.06;4395072;39;97499;-74
2021/08/11 04:42:31;;;;;;;0.28;0.28;;;13.00;93.90;;;15.63;82.65;101830.06;4394110;39;97878;-74
2021/08/11 04:45:37;;;;;;;8.57;0.98;;;13.00;93.80;;;15.62;82.57;101825.78;4384529;39;97136;-74
2021/08/11 04:48:40;;;;;;;0.82;0.68;;;13.10;93.70;;;15.55;83.03;101827.31;4392364;39;96801;-74
2021/08/11 04:51:45;;;;;;;0.75;0.75;;;13.10;93.50;;;15.51;83.25;101829.03;4394052;39;97436;-74
2021/08/11 04:54:49;;;;;;;0.80;0.80;;;13.10;93.60;;;15.57;83.78;101827.78;4391699;39;98767;-74
2021/08/11 04:57:55;;;;;;;2.67;0.95;;;13.10;93.60;;;15.76;82.42;101827.28;4393014;39;97623;-74
2021/08/11 05:00:58;;;;;;;0.75;0.73;;;13.20;93.60;;;15.95;82.70;101837.88;4374839;39;99448;-74
2021/08/11 05:04:07;;;;;;;0.40;0.38;;;13.30;93.60;;;16.11;82.19;101837.16;4395129;39;98669;-74
2021/08/11 05:07:11;;;;;;;1.88;1.27;;;13.40;93.50;;;16.51;80.90;101844.19;4390709;39;98207;-74
2021/08/11 05:10:16;;;;;;;0.98;0.57;;;13.50;93.40;;;16.70;81.17;101839.31;4396021;39;98564;-74
2021/08/11 05:13:21;;;;;;;1.48;1.38;;;13.70;93.30;;;16.67;81.65;101842.66;4395547;39;98945;-74
2021/08/11 05:16:25;;;;;;;0.63;0.63;;;13.90;93.20;;;16.94;80.54;101847.75;4393668;39;97851;-74
2021/08/11 05:19:29;;;;;;;0.70;0.38;;;14.10;93.00;;;17.05;80.24;101840.94;4395130;39;96552;-74
2021/08/11 05:22:33;;;;;;;0.93;0.85;;;14.20;92.80;;;17.23;79.53;101847.94;4393127;39;97617;-74
2021/08/11 05:25:37;;;;;;;0.55;0.55;;;14.30;92.70;;;17.50;79.22;101853.06;4391688;39;97873;-74
2021/08/11 05:28:42;;;;;;;;;;;14.50;92.60;;;17.80;78.64;101850.16;4392545;39;97892;-74
2021/08/11 05:31:45;;;;;;;;;;;14.70;92.50;;;18.07;78.09;101859.81;4385140;39;98288;-74
2021/08/11 05:34:49;;;;;;;0.40;0.40;;;14.90;92.30;;;18.36;77.44;101857.19;4390599;39;96735;-74
2021/08/11 05:37:53;;;;;;;1.95;1.13;;;15.10;92.10;;;18.72;76.52;101855.56;4392931;39;97605;-74
2021/08/11 05:40:59;;;;;;;0.88;0.65;;;15.40;92.00;;;18.90;76.63;101864.41;4383482;39;101622;-74
2021/08/11 05:44:08;;;;;;;0.77;0.77;;;15.60;91.80;;;19.20;75.47;101869.47;4391838;39;97706;-75
2021/08/11 05:47:14;;;;;;;1.30;1.23;;;15.90;91.50;;;19.24;75.70;101873.91;4394211;39;97727;-75
2021/08/11 05:50:17;;;;;;;2.47;0.85;;;16.00;91.40;;;19.58;75.40;101867.41;4393633;39;97124;-75
2021/08/11 05:53:24;;;;;;;1.67;1.58;;;16.20;91.40;;;19.93;74.48;101874.84;4394010;39;97582;-75
2021/08/11 05:56:28;;;;;;;4.30;0.90;;;16.50;91.20;;;20.16;74.88;101876.09;4392669;39;97515;-75
2021/08/11 05:59:34;;;;;;;;;;;16.70;91.00;;;20.20;74.59;101884.38;4395472;39;97760;-75
2021/08/11 06:02:39;;;;;;;0.85;0.85;;;16.90;90.80;;;20.41;74.89;101885.06;4394513;39;98112;-75
2021/08/11 06:06:04;;;;;;;2.05;1.25;;;17.10;90.80;;;20.71;73.55;101879.06;4394496;39;96932;-75
2021/08/11 06:09:07;;;;;;;2.30;1.23;;;17.30;90.80;;;20.88;73.42;101871.47;4391513;39;97622;-75
2021/08/11 06:12:11;;;;;;;;;;;17.50;90.70;;;20.92;74.04;101882.50;4385520;39;97561;-75
2021/08/11 06:15:16;;;;;;;0.57;0.50;;;17.60;90.70;;;21.11;74.43;101890.84;4393194;39;97520;-75
2021/08/11 06:18:20;;;;;;;2.40;0.95;;;17.80;90.70;;;21.36;73.56;101895.91;4385253;39;97604;-75
2021/08/11 06:21:24;;;;;;;1.67;0.80;;;17.90;90.60;;;21.74;73.21;101890.78;4384515;39;98483;-75
2021/08/11 06:24:28;;;;;;;1.88;1.58;;;18.20;90.40;;;23.65;67.68;101893.03;4394827;39;96892;-75
2021/08/11 06:27:32;;;;;;;0.77;0.68;;;19.10;89.50;;;24.73;65.59;101895.00;4386167;39;98338;-75
2021/08/11 06:30:37;;;;;;;14.48;2.50;;;20.00;87.20;;;25.66;63.78;101897.50;4392872;39;97245;-76
2021/08/11 06:33:41;;;;;;;1.90;1.48;;;20.80;85.70;;;28.79;56.88;101888.56;4392242;39;96544;-76
2021/08/11 06:36:48;;;;;;;1.88;1.48;;;22.20;83.30;;;30.90;53.37;101879.44;4382815;39;97697;-77
2021/08/11 06:39:52;;;;;;;3.35;1.95;;;23.80;80.10;;;32.81;50.01;101884.22;4392113;39;98314;-77
2021/08/11 06:42:56;;;;;;;1.95;1.77;;;25.50;76.70;;;31.47;54.73;101886.69;4393169;39;97522;-77
2021/08/11 06:46:04;;;;;;;7.32;3.45;;;26.20;75.80;;;31.00;56.90;101887.66;4391279;39;97776;-77
2021/08/11 06:49:08;;;;;;;2.60;1.35;;;26.30;76.20;;;32.97;53.91;101889.88;4382815;39;97721;-77
2021/08/11 06:52:11;;;;;;;2.53;1.13;;;27.10;76.40;;;35.12;50.15;101898.31;4394681;39;97149;-77
2021/08/11 06:55:17;;;;;;;;;;;28.30;75.50;;;38.75;43.93;101890.84;4396290;39;96664;-78
2021/08/11 06:58:21;;;;;;;3.80;2.22;;;30.20;73.10;;;40.61;41.94;101894.75;4394923;39;97427;-77
2021/08/11 07:01:26;;;;;;;7.97;1.73;;;32.10;70.00;;;41.87;41.03;101889.38;4402640;39;97490;-75
2021/08/11 07:04:30;;;;;;;3.17;1.58;;;33.50;67.90;;;42.73;40.45;101873.38;4391594;39;97564;-75
2021/08/11 07:07:34;;;;;;;9.82;2.20;;;34.70;67.10;;;43.65;40.34;101883.28;4393691;39;96640;-75
2021/08/11 07:10:38;;;;;;;3.17;1.27;;;35.60;66.30;;;44.71;39.61;101883.31;4395552;39;96717;-76
2021/08/11 07:13:42;;;;;;;2.53;2.08;;;36.50;66.20;;;45.13;39.78;101875.47;4394651;39;98928;-75
2021/08/11 07:16:47;;;;;;;1.17;1.10;;;37.30;66.00;;;45.60;39.75;101874.47;4395007;39;97091;-75
2021/08/11 07:19:51;;;;;;;3.83;1.13;;;37.70;65.80;;;46.09;38.86;101865.84;4394327;39;97500;-75
2021/08/11 07:22:58;;;;;;;1.33;0.88;;;38.10;65.20;;;46.68;39.29;101866.13;4395274;39;97395;-75
2021/08/11 07:26:04;;;;;;;1.25;0.80;;;38.60;66.00;;;47.01;40.42;101865.91;4394250;39;97680;-76
2021/08/11 07:29:09;;;;;;;1.58;1.35;;;38.90;66.80;;;47.35;39.81;101873.69;4393692;39;97210;-75
2021/08/11 07:32:13;;;;;;;2.38;1.55;;;39.30;66.70;;;46.77;40.94;101854.44;4394529;39;96875;-75
2021/08/11 07:35:18;;;;;;;2.90;1.92;;;39.40;66.30;;;46.61;41.88;101849.66;4394219;39;96772;-75
2021/08/11 07:38:22;;;;;;;13.65;2.47;;;39.20;67.40;;;46.25;41.59;101858.59;4390356;39;98171;-75
2021/08/11 07:41:26;;;;;;;2.17;1.35;;;39.00;67.50;;;45.85;42.88;101862.06;4395131;39;96676;-75
2021/08/11 07:44:30;;;;;;;2.13;1.42;;;38.70;68.20;;;45.63;43.64;101873.41;4394211;39;97610;-75
2021/08/11 07:47:35;;;;;;;2.55;1.52;;;38.50;69.70;;;45.75;43.70;101870.06;4395224;39;97460;-75
2021/08/11 07:50:38;;;;;;;1.20;1.10;;;38.40;69.60;;;44.31;44.97;101870.31;4395115;39;96990;-75
2021/08/11 07:53:44;;;;;;;1.95;0.93;;;38.10;68.80;;;42.89;47.37;101866.41;4393586;39;97602;-75
2021/08/11 07:56:48;;;;;;;2.25;0.88;;;37.30;70.40;;;41.22;51.23;101855.25;4382680;39;98598;-75
2021/08/11 07:59:53;;;;;;;2.08;1.17;;;36.50;71.70;;;39.95;53.27;101868.72;4394046;39;96493;-74
2021/08/11 08:02:58;;;;;;;1.38;0.98;;;35.60;73.20;;;39.66;53.41;101871.38;4395272;39;96626;-74
2021/08/11 08:06:05;;;;;;;3.95;1.88;;;34.90;74.20;;;39.62;52.38;101867.16;4393752;39;97669;-77
2021/08/11 08:09:09;;;;;;;3.72;1.48;;;34.40;73.60;;;39.34;51.79;101881.75;4393545;39;96758;-74
2021/08/11 08:12:13;;;;;;;2.85;1.20;;;33.90;73.60;;;38.89;51.48;101865.75;4394236;39;97538;-74
2021/08/11 08:15:17;;;;;;;2.00;1.27;;;33.50;73.30;;;38.64;52.03;101874.47;4393716;39;97086;-74
2021/08/11 08:18:23;;;;;;;1.30;0.68;;;33.00;74.30;;;39.43;50.05;101862.88;4395011;39;96418;-74
2021/08/11 08:21:26;;;;;;;5.07;1.30;;;32.80;75.20;;;41.22;46.14;101871.38;4395276;39;97698;-74
2021/08/11 08:24:32;;;;;;;1.98;0.75;;;33.00;75.10;;;42.18;44.76;101877.53;4396152;39;97669;-75
2021/08/11 08:27:36;;;;;;;0.80;0.80;;;33.40;74.40;;;42.34;43.68;101869.31;4394819;39;96898;-74
2021/08/11 08:30:42;;;;;;;1.25;1.00;;;33.60;73.50;;;42.64;43.89;101873.56;4394381;39;97611;-74
2021/08/11 08:33:47;;;;;;;2.58;1.80;;;33.90;74.00;;;43.12;43.73;101872.53;4391965;39;96752;-75
2021/08/11 08:36:51;;;;;;;1.92;0.60;;;34.20;74.20;;;44.17;41.86;101871.28;4393033;39;96528;-75
2021/08/11 08:39:55;;;;;;;3.25;2.28;;;34.60;74.20;;;44.32;41.60;101873.91;4375273;39;96999;-75
2021/08/11 08:42:59;;;;;;;1.67;1.23;;;35.10;73.10;;;43.19;44.36;101876.94;4394700;39;97616;-75
2021/08/11 08:46:06;;;;;;;3.97;1.45;;;35.20;73.10;;;40.77;48.22;101868.97;4384580;39;97275;-75
2021/08/11 08:49:15;;;;;;;1.75;0.93;;;34.90;71.90;;;39.16;51.42;101862.13;4385353;39;96683;-75
2021/08/11 08:52:20;;;;;;;3.58;1.23;;;34.30;72.40;;;38.64;52.48;101862.50;4392333;39;97626;-74
2021/08/11 08:55:26;;;;;;;1.98;1.77;;;33.70;73.40;;;38.17;52.93;101873.28;4394078;39;96707;-75
2021/08/11 08:58:29;;;;;;;1.25;0.95;;;33.10;73.40;;;38.03;52.72;101866.25;4395142;39;97588;-75
2021/08/11 09:01:35;;;;;;;0.77;0.77;;;32.70;74.60;;;38.07;52.97;101866.88;4391041;39;96944;-75
2021/08/11 09:04:42;;;;;;;3.63;0.70;;;32.50;75.80;;;37.39;55.34;101869.22;4394694;39;97275;-75
2021/08/11 09:07:48;;;;;;;1.23;0.85;;;32.40;76.30;;;36.58;57.00;101865.03;4394043;39;97818;-74
2021/08/11 09:10:52;;;;;;;7.63;1.05;;;32.30;76.40;;;35.60;59.07;101873.81;4393371;39;97204;-74
2021/08/11 09:14:23;;;;;;;0.43;0.43;;;31.90;76.60;;;34.52;61.29;101883.19;4394506;39;97620;-74
2021/08/11 09:17:36;;;;;;;0.80;0.80;;;31.40;76.40;;;33.87;62.29;101875.28;4394822;39;97776;-75
2021/08/11 09:20:44;;;;;;;2.10;0.88;;;30.80;77.10;;;33.32;62.96;101874.50;4392848;39;97760;-74
2021/08/11 09:23:48;;;;;;;6.82;1.55;;;30.30;77.80;;;33.09;63.08;101871.78;4394480;39;99130;-74
2021/08/11 09:26:54;;;;;;;1.10;0.45;;;29.90;78.60;;;33.46;62.40;101866.63;4395338;39;98622;-74
2021/08/11 09:30:16;;;;;;;27.80;1.75;;;29.60;79.60;;;34.70;59.27;101875.19;4393408;39;97549;-74
2021/08/11 09:33:25;;;;;;;0.98;0.93;;;29.60;79.60;;;34.91;58.51;101863.47;4392026;39;97548;-74
2021/08/11 09:36:42;;;;;;;3.22;1.65;;;29.70;79.70;;;34.41;59.93;101871.56;4393181;39;97565;-74
2021/08/11 09:39:46;;;;;;;1.75;1.05;;;29.80;79.30;;;33.83;61.34;101876.56;4383001;39;97253;-74
2021/08/11 09:42:56;;;;;;;2.15;1.00;;;29.70;79.50;;;34.11;60.37;101878.69;4392880;39;97660;-74
2021/08/11 09:46:04;;;;;;;1.83;1.60;;;29.60;79.60;;;33.80;60.42;101880.22;4393654;39;96702;-74
2021/08/11 09:49:17;;;;;;;9.32;1.52;;;29.50;79.50;;;34.27;60.25;101877.50;4384863;39;97433;-75
2021/08/11 09:52:23;;;;;;;;;;;29.50;80.10;;;34.96;58.35;101879.66;4392615;39;97729;-75
2021/08/11 09:55:28;;;;;;;1.33;0.98;;;29.70;80.00;;;35.86;56.44;101877.38;4393044;39;97812;-75
2021/08/11 09:58:37;;;;;;;1.63;0.98;;;30.10;79.80;;;36.48;56.30;101874.53;4392986;39;97753;-75
2021/08/11 10:01:41;;;;;;;1.05;1.02;;;30.40;80.10;;;36.59;56.89;101883.34;4392707;39;96813;-75
2021/08/11 10:04:45;;;;;;;4.50;1.25;;;30.90;80.40;;;36.77;57.28;101883.50;4394330;39;97515;-75
2021/08/11 10:07:54;;;;;;;1.25;0.93;;;31.30;80.10;;;36.58;58.18;101884.56;4393224;39;96873;-75
2021/08/11 10:10:59;;;;;;;0.85;0.60;;;31.50;79.80;;;35.63;60.76;101891.69;4390772;39;98489;-75
2021/08/11 10:14:10;;;;;;;2.40;0.82;;;31.40;79.60;;;34.50;62.57;101887.66;4401170;39;97119;-75
2021/08/11 10:17:14;;;;;;;1.70;1.33;;;31.00;79.50;;;33.83;64.56;101899.63;4384516;39;97609;-75
2021/08/11 10:20:22;;;;;;;3.13;1.45;;;30.50;80.70;;;33.86;64.90;101903.50;4392049;39;96770;-75
2021/08/11 10:23:28;;;;;;;1.15;0.38;;;30.30;81.60;;;34.29;63.61;101894.56;4394736;39;97715;-75
2021/08/11 10:26:33;;;;;;;1.58;1.45;;;30.20;82.10;;;34.48;64.22;101896.44;4391662;39;97505;-75
2021/08/11 10:29:38;;;;;;;2.55;0.85;;;30.30;82.50;;;34.29;64.70;101900.13;4380669;39;97055;-75
2021/08/11 10:32:43;;;;;;;1.55;1.25;;;30.30;82.20;;;34.30;65.07;101901.69;4392985;39;98479;-75
2021/08/11 10:35:49;;;;;;;1.65;1.33;;;30.30;82.70;;;34.25;65.46;101899.41;4377758;39;97720;-75
2021/08/11 10:38:58;;;;;;;2.17;1.15;;;30.30;83.10;;;34.43;65.10;101896.97;4394274;39;97743;-77
2021/08/11 10:42:12;;;;;;;1.25;1.08;;;30.30;83.30;;;34.65;64.49;101903.59;4386056;39;97669;-77
2021/08/11 10:45:23;;;;;;;4.90;1.20;;;30.40;83.10;;;34.62;64.82;101898.06;4393089;39;98605;-77
2021/08/11 10:48:28;;;;;;;1.73;1.00;;;30.50;83.30;;;34.66;65.19;101921.84;4382803;39;97582;-77
2021/08/11 10:51:40;;;;;;;2.20;1.27;;;30.50;83.50;;;34.73;64.64;101906.97;4390820;39;96681;-77
2021/08/11 10:54:54;;;;;;;2.25;0.93;;;30.50;82.90;;;34.81;64.44;101911.88;4384580;39;96901;-77
2021/08/11 10:57:58;;;;;;;1.83;1.20;;;30.60;83.20;;;34.62;65.20;101910.00;4391592;39;97004;-77
2021/08/11 11:01:28;;;;;;;2.03;1.55;;;30.60;83.20;;;34.26;65.91;101911.31;4384078;39;98102;-77
2021/08/11 11:04:41;;;;;;;1.23;0.90;;;30.40;83.70;;;34.47;65.69;101913.59;4391514;39;97597;-77
2021/08/11 11:08:34;;;;;;;1.65;0.95;;;30.30;83.60;;;34.55;65.83;101918.53;4383931;39;96709;-77
2021/08/11 11:11:40;;;;;;;3.35;1.63;;;30.40;83.90;;;34.22;66.37;101914.19;4391343;39;96720;-77
2021/08/11 11:14:48;;;;;;;5.00;1.52;;;30.30;83.70;;;34.27;66.37;101910.09;4393910;39;97888;-77
2021/08/11 11:18:11;;;;;;;0.95;0.88;;;30.30;83.90;;;33.97;66.81;101918.75;4393753;39;96706;-77
2021/08/11 11:21:32;;;;;;;1.75;1.42;;;30.20;83.60;;;34.17;66.52;101919.50;4383095;39;97634;-77
2021/08/11 11:24:52;;;;;;;5.75;1.30;;;30.10;84.00;;;33.42;67.73;101910.41;4391945;39;97558;-77
2021/08/11 11:27:59;;;;;;;7.13;0.88;;;30.00;83.70;;;33.29;67.99;101912.28;4391092;39;97901;-77
2021/08/11 11:31:38;;;;;;;3.35;1.02;;;29.80;84.80;;;34.00;66.80;101906.00;4378052;39;96642;-77
2021/08/11 11:34:42;;;;;;;2.53;1.50;;;29.90;84.80;;;34.33;66.31;101909.16;4395349;39;98164;-77
2021/08/11 11:38:08;;;;;;;2.22;1.63;;;30.10;85.00;;;34.38;66.46;101911.41;4393292;39;97724;-77
2021/08/11 11:41:12;;;;;;;1.23;0.85;;;30.20;85.10;;;34.51;65.86;101903.13;4393909;39;97792;-77
2021/08/11 11:44:47;;;;;;;1.45;1.17;;;30.30;84.00;;;34.36;66.42;101899.94;4393111;39;96838;-77
2021/08/11 11:48:12;;;;;;;0.52;0.52;;;30.30;84.30;;;34.36;66.84;101893.56;4401678;39;96679;-77
2021/08/11 11:51:16;;;;;;;0.67;0.67;;;30.30;84.40;;;34.39;66.87;101887.91;4393260;39;97680;-78
2021/08/11 11:54:20;;;;;;;0.05;0.05;;;30.40;84.80;;;34.32;67.10;101902.03;4394704;39;97498;-78
2021/08/11 11:57:30;;;;;;;0.35;0.35;;;30.40;84.80;;;34.01;67.72;101888.06;4395143;39;98276;-77
2021/08/11 12:00:37;;;;;;;1.50;1.05;;;30.30;84.30;;;33.94;68.39;101891.03;4383823;39;96497;-77
2021/08/11 12:03:45;;;;;;;2.17;0.88;;;30.30;85.10;;;33.58;68.44;101890.22;4386336;39;97556;-77
2021/08/11 12:06:49;;;;;;;2.45;1.30;;;30.10;84.70;;;33.49;68.76;101903.91;4393623;39;97877;-78
2021/08/11 12:09:55;;;;;;;1.30;0.47;;;30.00;84.70;;;33.48;68.53;101899.56;4396325;39;97658;-78
2021/08/11 12:13:04;;;;;;;1.65;1.40;;;29.90;85.10;;;33.10;68.86;101892.81;4386191;39;96805;-77
2021/08/11 12:16:12;;;;;;;0.65;0.65;;;29.80;84.50;;;32.97;68.90;101891.84;4394660;39;97784;-77
2021/08/11 12:19:19;;;;;;;4.22;0.82;;;29.50;85.10;;;33.23;68.61;101890.97;4395368;39;97606;-77
2021/08/11 12:22:36;;;;;;;1.27;1.08;;;29.50;85.60;;;33.58;67.96;101895.78;4395514;39;97275;-77
2021/08/11 12:25:40;;;;;;;1.00;0.88;;;29.60;85.00;;;33.91;66.87;101903.78;4384957;39;97807;-78
2021/08/11 12:28:48;;;;;;;0.65;0.65;;;29.80;85.00;;;34.12;66.52;101897.75;4385754;39;96745;-78
2021/08/11 12:31:53;;;;;;;4.47;1.38;;;29.90;85.00;;;34.17;67.11;101891.69;4395177;39;96767;-78
2021/08/11 12:34:57;;;;;;;0.88;0.85;;;30.20;84.50;;;34.07;66.79;101901.00;4388211;39;96551;-78
2021/08/11 12:38:03;;;;;;;1.08;0.60;;;30.20;84.40;;;34.17;67.48;101909.13;4393299;39;97954;-78
2021/08/11 12:41:20;;;;;;;1.80;1.02;;;30.30;84.60;;;34.15;67.58;101903.19;4396759;39;97684;-78
2021/08/11 12:44:27;;;;;;;0.85;0.70;;;30.40;84.50;;;34.20;67.75;101902.69;4392960;39;96803;-78
2021/08/11 12:47:33;;;;;;;1.08;0.50;;;30.40;84.90;;;34.11;67.95;101903.72;4395994;39;97638;-78
2021/08/11 12:50:44;;;;;;;0.85;0.50;;;30.40;84.90;;;34.09;68.48;101906.16;4386943;39;97785;-78
2021/08/11 12:54:04;;;;;;;2.13;0.95;;;30.40;85.10;;;34.08;68.35;101907.38;4375884;39;97702;-79
2021/08/11 12:57:08;;;;;;;1.33;1.02;;;30.40;84.90;;;33.70;69.05;101898.72;4388603;39;97135;-78
2021/08/11 13:00:17;;;;;;;0.20;0.20;;;30.30;84.90;;;33.61;69.94;101890.16;4397213;39;97217;-79
2021/08/11 13:03:23;;;;;;;0.85;0.63;;;30.20;85.80;;;33.76;69.19;101893.44;4395950;39;97005;-79